Time;durP1;ratioP1;P1;durP2;ratioP2;P2;SDS_P1;SDS_P2;PMS_P1;PMS_P2;Temp;Humidity;BMP_temperature;BMP_pressure;BME280_temperature;BME280_humidity;BME280_pressure;Samples;Min_cycle;Max_cycle;Signal;HPM_P1;HPM_P2
2022/06/27 00:01:05;;;;;;;2.72;1.42;;;22.10;75.70;;;;;;5075273;28;20047;-68
2022/06/27 00:03:32;;;;;;;4.18;1.92;;;22.00;76.00;;;;;;5078221;28;20123;-69
2022/06/27 00:06:03;;;;;;;4.95;2.13;;;22.10;76.00;;;;;;5077209;28;20048;-68
2022/06/27 00:08:30;;;;;;;3.95;1.63;;;22.30;75.30;;;;;;5073928;28;20101;-69
2022/06/27 00:10:57;;;;;;;4.90;2.05;;;22.20;75.40;;;;;;5071937;28;20051;-70
2022/06/27 00:13:24;;;;;;;3.00;2.00;;;22.30;75.10;;;;;;5076198;28;20041;-69
2022/06/27 00:15:51;;;;;;;4.28;2.03;;;22.40;74.90;;;;;;5067765;28;20063;-70
2022/06/27 00:18:18;;;;;;;3.63;2.20;;;22.30;75.20;;;;;;5069750;28;20913;-69
2022/06/27 00:20:45;;;;;;;4.60;2.13;;;22.20;75.70;;;;;;5065436;28;20044;-68
2022/06/27 00:23:13;;;;;;;5.28;2.70;;;22.10;75.70;;;;;;5069326;28;20129;-69
2022/06/27 00:25:40;;;;;;;5.13;2.50;;;22.10;75.40;;;;;;5068594;28;20143;-69
2022/06/27 00:28:07;;;;;;;6.45;3.40;;;22.10;75.00;;;;;;5071685;28;20044;-68
2022/06/27 00:30:35;;;;;;;4.10;3.10;;;22.20;74.80;;;;;;5062579;28;20067;-70
2022/06/27 00:33:02;;;;;;;8.80;3.78;;;22.10;74.50;;;;;;5076795;28;20040;-69
2022/06/27 00:35:29;;;;;;;5.90;3.10;;;22.10;74.20;;;;;;5076999;28;20040;-69
2022/06/27 00:37:56;;;;;;;5.78;4.00;;;22.30;73.00;;;;;;5075142;28;20764;-69
2022/06/27 00:40:26;;;;;;;5.10;3.33;;;22.30;72.60;;;;;;5074142;28;20065;-68
2022/06/27 00:42:53;;;;;;;5.83;3.70;;;22.20;72.60;;;;;;5075068;28;20040;-69
2022/06/27 00:45:20;;;;;;;6.30;3.42;;;22.20;72.40;;;;;;5075678;28;20094;-69
2022/06/27 00:47:47;;;;;;;5.60;3.30;;;22.30;72.70;;;;;;5069537;28;20101;-70
2022/06/27 00:50:16;;;;;;;4.72;3.40;;;22.30;71.70;;;;;;5080082;28;20126;-69
2022/06/27 00:52:43;;;;;;;5.03;2.80;;;22.30;71.80;;;;;;5070232;28;20131;-68
2022/06/27 00:55:11;;;;;;;4.18;3.05;;;22.30;71.80;;;;;;5077782;28;20075;-69
2022/06/27 00:57:40;;;;;;;5.28;3.47;;;22.30;72.30;;;;;;5077731;28;20139;-69
2022/06/27 01:00:13;;;;;;;4.60;3.13;;;22.20;72.30;;;;;;5074808;28;20048;-68
2022/06/27 01:02:41;;;;;;;5.35;2.80;;;22.10;72.80;;;;;;5073623;28;20052;-68
2022/06/27 01:05:09;;;;;;;7.05;2.88;;;22.10;73.10;;;;;;5066832;28;20050;-68
2022/06/27 01:07:36;;;;;;;7.68;3.13;;;22.10;73.50;;;;;;5076740;28;20036;-68
2022/06/27 01:10:10;;;;;;;5.55;3.20;;;22.10;74.20;;;;;;5075957;28;20488;-67
2022/06/27 01:12:53;;;;;;;5.18;3.35;;;22.00;74.50;;;;;;5057613;28;20464;-67
2022/06/27 01:15:20;;;;;;;6.28;3.03;;;21.90;74.70;;;;;;5060572;28;20037;-67
2022/06/27 01:17:48;;;;;;;4.38;2.92;;;22.00;75.30;;;;;;5068422;28;20044;-68
2022/06/27 01:20:15;;;;;;;3.95;2.78;;;21.90;75.50;;;;;;5066030;28;20110;-68
2022/06/27 01:22:44;;;;;;;4.03;2.45;;;21.80;75.70;;;;;;5084025;28;20110;-68
2022/06/27 01:25:18;;;;;;;4.97;2.75;;;21.80;76.10;;;;;;5058262;28;20040;-69
2022/06/27 01:27:56;;;;;;;5.35;2.90;;;21.70;76.40;;;;;;5058921;28;20060;-69
2022/06/27 01:30:26;;;;;;;4.07;2.60;;;21.70;76.70;;;;;;5060071;28;20056;-68
2022/06/27 01:32:53;;;;;;;4.93;3.13;;;21.80;76.20;;;;;;5074744;28;20051;-68
2022/06/27 01:35:22;;;;;;;4.32;2.67;;;21.80;76.50;;;;;;5072692;28;20044;-67
2022/06/27 01:37:53;;;;;;;4.53;3.00;;;21.70;77.10;;;;;;5074572;28;20052;-67
2022/06/27 01:40:20;;;;;;;4.60;2.80;;;21.70;77.30;;;;;;5070017;28;20044;-67
2022/06/27 01:42:48;;;;;;;4.20;2.72;;;21.70;77.60;;;;;;5065180;28;20052;-67
2022/06/27 01:45:18;;;;;;;5.63;3.37;;;21.70;77.90;;;;;;5067879;28;20649;-68
2022/06/27 01:47:45;;;;;;;4.78;2.90;;;21.70;78.00;;;;;;5064385;28;20148;-65
2022/06/27 01:50:13;;;;;;;4.95;3.17;;;21.70;78.00;;;;;;5052043;28;20643;-67
2022/06/27 01:52:50;;;;;;;4.00;2.50;;;21.60;78.20;;;;;;5055702;28;20055;-68
2022/06/27 01:55:19;;;;;;;4.75;2.90;;;21.60;78.20;;;;;;5057317;28;20102;-70
2022/06/27 01:57:47;;;;;;;4.90;2.65;;;21.60;78.20;;;;;;5065988;28;20066;-69
2022/06/27 02:00:16;;;;;;;9.63;2.75;;;21.60;78.20;;;;;;5067218;28;20044;-67
2022/06/27 02:02:58;;;;;;;4.10;2.80;;;21.60;78.20;;;;;;5071527;28;20537;-68
2022/06/27 02:05:26;;;;;;;4.65;2.85;;;21.60;78.70;;;;;;5072996;28;20076;-67
2022/06/27 02:07:58;;;;;;;6.05;2.42;;;21.50;78.80;;;;;;5072235;28;20044;-67
2022/06/27 02:10:26;;;;;;;8.93;3.22;;;21.40;78.90;;;;;;5073349;28;20055;-67
2022/06/27 02:12:53;;;;;;;4.50;2.53;;;21.40;78.80;;;;;;5072781;28;20044;-66
2022/06/27 02:15:21;;;;;;;5.25;2.47;;;21.50;78.90;;;;;;5078606;28;20048;-67
2022/06/27 02:17:49;;;;;;;4.45;2.38;;;21.50;78.90;;;;;;5069804;28;20466;-67
2022/06/27 02:20:17;;;;;;;6.25;2.63;;;21.50;78.90;;;;;;5061851;28;20044;-67
2022/06/27 02:22:44;;;;;;;5.03;2.58;;;21.50;79.00;;;;;;5062718;28;20056;-67
2022/06/27 02:25:11;;;;;;;4.95;2.50;;;21.50;79.20;;;;;;5068494;28;20053;-66
2022/06/27 02:27:40;;;;;;;5.32;2.42;;;21.40;79.50;;;;;;5065860;28;20127;-67
2022/06/27 02:30:08;;;;;;;7.90;2.90;;;21.40;79.50;;;;;;5061463;28;20045;-66
2022/06/27 02:32:35;;;;;;;6.43;2.72;;;21.50;79.50;;;;;;5062048;28;20064;-66
2022/06/27 02:35:05;;;;;;;4.80;2.50;;;21.40;79.50;;;;;;5067206;28;20402;-68
2022/06/27 02:37:32;;;;;;;4.60;2.63;;;21.40;79.80;;;;;;5071378;28;20048;-68
2022/06/27 02:40:00;;;;;;;5.82;2.55;;;21.30;79.90;;;;;;5072980;28;20454;-67
2022/06/27 02:42:28;;;;;;;7.00;2.83;;;21.40;80.00;;;;;;5068269;28;20047;-68
2022/06/27 02:44:58;;;;;;;4.72;2.50;;;21.30;80.10;;;;;;5067864;28;20040;-66
2022/06/27 02:47:32;;;;;;;4.95;2.95;;;21.20;80.20;;;;;;5082299;28;20052;-67
2022/06/27 02:49:59;;;;;;;4.30;2.92;;;21.30;80.30;;;;;;5070272;28;20040;-67
2022/06/27 02:52:31;;;;;;;5.13;3.03;;;21.30;80.30;;;;;;5065138;28;20048;-67
2022/06/27 02:55:08;;;;;;;5.65;3.00;;;21.30;80.10;;;;;;5062489;28;20055;-67
2022/06/27 02:57:45;;;;;;;6.82;3.15;;;21.30;79.60;;;;;;5079111;28;20036;-66
2022/06/27 03:00:16;;;;;;;5.28;3.30;;;21.30;79.60;;;;;;5060318;28;20137;-66
2022/06/27 03:02:44;;;;;;;4.28;2.72;;;21.30;79.60;;;;;;5068661;28;20515;-67
2022/06/27 03:05:11;;;;;;;5.80;3.05;;;21.30;79.90;;;;;;5079192;28;20055;-67
2022/06/27 03:07:39;;;;;;;4.22;2.80;;;21.30;79.90;;;;;;5081259;28;20127;-68
2022/06/27 03:10:07;;;;;;;5.13;2.70;;;21.30;79.90;;;;;;5070794;28;20048;-67
2022/06/27 03:12:34;;;;;;;6.45;3.17;;;21.20;79.90;;;;;;5073854;28;20052;-67
2022/06/27 03:15:01;;;;;;;5.35;3.53;;;21.30;79.90;;;;;;5062239;28;20121;-68
2022/06/27 03:17:30;;;;;;;7.70;3.17;;;21.30;79.90;;;;;;5067893;28;20405;-67
2022/06/27 03:20:15;;;;;;;5.95;3.72;;;21.20;79.80;;;;;;5065873;28;20146;-67
2022/06/27 03:23:05;;;;;;;5.53;3.30;;;21.20;79.90;;;;;;5061813;28;20083;-66
2022/06/27 03:25:39;;;;;;;5.90;3.40;;;21.20;79.80;;;;;;5062343;28;20510;-66
2022/06/27 03:28:09;;;;;;;5.47;3.30;;;21.20;80.10;;;;;;5064982;28;20044;-65
2022/06/27 03:30:36;;;;;;;6.40;3.70;;;21.10;80.40;;;;;;5065633;28;20044;-67
2022/06/27 03:33:05;;;;;;;5.43;3.50;;;21.10;80.40;;;;;;5053405;28;20055;-67
2022/06/27 03:35:40;;;;;;;9.38;3.53;;;21.10;80.20;;;;;;5075096;28;20493;-65
2022/06/27 03:38:10;;;;;;;8.55;3.67;;;21.10;80.00;;;;;;5075061;28;20055;-67
2022/06/27 03:40:37;;;;;;;4.88;3.20;;;21.10;80.10;;;;;;5077360;28;20040;-68
2022/06/27 03:43:06;;;;;;;5.50;3.17;;;21.10;80.20;;;;;;5071507;28;20047;-67
2022/06/27 03:45:34;;;;;;;5.90;3.78;;;21.10;80.20;;;;;;5062948;28;20469;-65
2022/06/27 03:48:05;;;;;;;8.90;3.67;;;21.10;80.10;;;;;;5092712;28;20052;-68
2022/06/27 03:50:31;;;;;;;5.28;3.47;;;21.10;80.30;;;;;;5078859;28;20043;-68
2022/06/27 03:52:58;;;;;;;7.68;4.10;;;21.10;80.20;;;;;;5075971;28;20068;-68
2022/06/27 03:55:26;;;;;;;4.80;3.28;;;21.00;80.30;;;;;;5093533;28;20063;-68
2022/06/27 03:57:54;;;;;;;6.32;4.03;;;21.00;80.50;;;;;;5079993;28;20180;-66
2022/06/27 04:00:25;;;;;;;6.25;3.75;;;21.00;80.80;;;;;;5058542;28;20127;-68
2022/06/27 04:02:54;;;;;;;6.68;3.53;;;20.90;81.00;;;;;;5074906;28;20068;-66
2022/06/27 04:05:45;;;;;;;8.50;3.90;;;21.00;81.00;;;;;;5061205;28;20047;-67
2022/06/27 04:08:13;;;;;;;5.05;3.55;;;20.90;80.90;;;;;;5062001;28;20440;-67
2022/06/27 04:10:42;;;;;;;6.93;3.83;;;21.00;81.00;;;;;;5077194;28;20059;-66
2022/06/27 04:13:09;;;;;;;5.88;3.63;;;21.00;81.00;;;;;;5076877;28;20561;-66
2022/06/27 04:15:36;;;;;;;8.05;3.83;;;20.90;81.00;;;;;;5079143;28;20032;-67
2022/06/27 04:18:21;;;;;;;8.50;3.80;;;21.00;81.10;;;;;;5079290;28;20118;-66
2022/06/27 04:21:09;;;;;;;5.95;4.05;;;21.00;81.10;;;;;;5078085;28;20057;-66
2022/06/27 04:23:44;;;;;;;8.40;4.13;;;21.10;80.80;;;;;;5075259;28;20060;-66
2022/06/27 04:26:17;;;;;;;7.28;4.90;;;21.00;80.90;;;;;;5076336;28;20127;-67
2022/06/27 04:28:44;;;;;;;7.10;3.95;;;21.00;80.90;;;;;;5077727;28;20139;-66
2022/06/27 04:31:11;;;;;;;5.70;4.05;;;21.10;80.80;;;;;;5076591;28;20067;-67
2022/06/27 04:33:38;;;;;;;6.20;3.95;;;21.10;80.80;;;;;;5077126;28;20044;-69
2022/06/27 04:36:07;;;;;;;6.18;3.90;;;21.00;81.00;;;;;;5077696;28;20044;-67
2022/06/27 04:38:38;;;;;;;6.95;3.85;;;21.00;80.80;;;;;;5074278;28;20052;-65
2022/06/27 04:41:09;;;;;;;9.23;4.82;;;21.10;80.60;;;;;;5078560;28;20041;-67
2022/06/27 04:43:39;;;;;;;6.97;3.85;;;21.10;80.60;;;;;;5071076;28;20490;-67
2022/06/27 04:46:07;;;;;;;6.00;4.40;;;21.00;80.80;;;;;;5071507;28;20050;-67
2022/06/27 04:48:53;;;;;;;6.38;3.70;;;21.10;81.00;;;;;;5068039;28;20050;-67
2022/06/27 04:51:20;;;;;;;6.68;3.83;;;21.00;80.90;;;;;;5064591;28;20060;-66
2022/06/27 04:53:48;;;;;;;5.97;4.28;;;21.00;80.80;;;;;;5066531;28;20079;-66
2022/06/27 04:56:16;;;;;;;6.35;4.00;;;21.10;80.70;;;;;;5067772;28;20047;-67
2022/06/27 04:58:43;;;;;;;6.35;3.95;;;21.00;80.70;;;;;;5076740;28;20136;-68
2022/06/27 05:01:11;;;;;;;6.60;4.32;;;21.10;80.70;;;;;;5077441;28;20049;-66
2022/06/27 05:03:46;;;;;;;7.80;4.60;;;21.00;80.90;;;;;;5074989;28;20387;-66
2022/06/27 05:06:19;;;;;;;6.22;4.15;;;21.00;81.10;;;;;;5078234;28;20181;-68
2022/06/27 05:08:47;;;;;;;6.28;4.07;;;21.00;81.50;;;;;;5080751;28;20167;-68
2022/06/27 05:11:16;;;;;;;6.78;4.40;;;20.90;81.70;;;;;;5078340;28;20147;-66
2022/06/27 05:13:43;;;;;;;6.97;4.07;;;20.90;81.70;;;;;;5055411;28;20900;-67
2022/06/27 05:16:33;;;;;;;9.40;4.10;;;20.90;81.70;;;;;;5059014;28;20047;-67
2022/06/27 05:19:00;;;;;;;6.00;3.83;;;21.00;81.50;;;;;;5078265;28;20144;-67
2022/06/27 05:21:28;;;;;;;5.90;4.25;;;21.10;81.50;;;;;;5057724;28;20094;-68
2022/06/27 05:23:56;;;;;;;7.80;4.63;;;21.10;81.50;;;;;;5068946;28;20809;-67
2022/06/27 05:26:24;;;;;;;7.95;4.78;;;21.10;81.50;;;;;;5079276;28;20134;-68
2022/06/27 05:28:52;;;;;;;6.30;4.53;;;21.10;81.60;;;;;;5077945;28;20194;-68
2022/06/27 05:31:19;;;;;;;7.30;4.45;;;21.10;81.60;;;;;;5077373;28;20109;-67
2022/06/27 05:33:47;;;;;;;8.68;5.15;;;21.10;81.50;;;;;;5076380;28;20048;-68
2022/06/27 05:36:14;;;;;;;9.68;5.30;;;21.10;81.40;;;;;;5076854;28;20079;-68
2022/06/27 05:38:41;;;;;;;10.25;5.60;;;21.10;81.60;;;;;;5077336;28;20052;-67
2022/06/27 05:41:09;;;;;;;8.73;4.93;;;21.00;81.90;;;;;;5061871;28;20074;-68
2022/06/27 05:43:36;;;;;;;8.70;4.80;;;21.00;82.00;;;;;;5073733;28;20059;-66
2022/06/27 05:46:04;;;;;;;8.35;4.22;;;20.90;82.20;;;;;;5060034;28;20064;-66
2022/06/27 05:48:58;;;;;;;7.88;4.07;;;20.80;82.40;;;;;;5089458;28;20056;-68
2022/06/27 05:51:47;;;;;;;7.18;4.55;;;20.80;82.30;;;;;;5075574;28;20045;-67
2022/06/27 05:54:15;;;;;;;7.05;4.28;;;20.90;82.50;;;;;;5078708;28;20040;-66
2022/06/27 05:56:44;;;;;;;7.47;4.95;;;20.90;82.30;;;;;;5076256;28;20439;-68
2022/06/27 05:59:12;;;;;;;8.00;4.63;;;21.00;82.10;;;;;;5080331;28;20056;-67
2022/06/27 06:01:40;;;;;;;7.63;4.22;;;21.00;82.20;;;;;;5059015;28;20048;-67
2022/06/27 06:04:08;;;;;;;7.50;3.92;;;21.10;82.40;;;;;;5073266;28;20132;-68
2022/06/27 06:06:38;;;;;;;7.65;4.20;;;21.00;82.60;;;;;;5075720;28;20071;-66
2022/06/27 06:09:05;;;;;;;8.57;4.32;;;21.10;82.20;;;;;;5079399;28;20184;-67
2022/06/27 06:11:33;;;;;;;5.82;3.95;;;21.10;82.10;;;;;;5079900;28;20051;-68
2022/06/27 06:14:02;;;;;;;7.25;4.45;;;21.10;82.10;;;;;;5073894;28;20056;-67
2022/06/27 06:16:29;;;;;;;6.88;4.22;;;21.10;82.10;;;;;;5050759;28;20097;-69
2022/06/27 06:18:56;;;;;;;8.25;4.40;;;21.20;82.00;;;;;;5064123;28;20166;-68
2022/06/27 06:21:24;;;;;;;6.80;4.85;;;21.30;81.80;;;;;;5064266;28;20105;-67
2022/06/27 06:23:52;;;;;;;6.75;4.00;;;21.30;82.00;;;;;;5065684;28;20055;-68
2022/06/27 06:26:20;;;;;;;7.82;4.72;;;21.30;82.10;;;;;;5066387;28;20653;-67
2022/06/27 06:28:48;;;;;;;7.75;4.45;;;21.30;82.00;;;;;;5063199;28;20379;-68
2022/06/27 06:31:22;;;;;;;7.55;4.47;;;21.40;82.00;;;;;;5064597;28;20162;-67
2022/06/27 06:33:56;;;;;;;7.70;4.03;;;21.50;81.70;;;;;;5049796;28;20465;-68
2022/06/27 06:36:24;;;;;;;8.55;4.72;;;21.50;81.40;;;;;;5067813;28;20126;-68
2022/06/27 06:38:52;;;;;;;7.90;4.57;;;21.50;81.20;;;;;;5066955;28;20431;-67
2022/06/27 06:41:20;;;;;;;7.47;4.57;;;21.50;81.10;;;;;;5067758;28;20438;-67
2022/06/27 06:43:47;;;;;;;9.38;4.13;;;21.50;81.20;;;;;;5069117;28;20570;-67
2022/06/27 06:46:52;;;;;;;6.25;4.38;;;21.50;81.10;;;;;;4992211;28;20619;-68
2022/06/27 06:49:40;;;;;;;7.43;4.20;;;21.50;81.30;;;;;;5062259;28;20048;-68
2022/06/27 06:52:07;;;;;;;7.43;3.97;;;21.50;81.30;;;;;;5068967;28;20080;-68
2022/06/27 06:54:34;;;;;;;7.00;4.22;;;21.60;81.20;;;;;;5063171;28;20556;-68
2022/06/27 06:57:01;;;;;;;8.75;4.80;;;21.60;81.20;;;;;;5051977;28;21883;-68
2022/06/27 06:59:28;;;;;;;7.38;4.40;;;21.70;81.10;;;;;;5065246;28;20064;-68
2022/06/27 07:01:57;;;;;;;6.10;4.03;;;21.70;80.70;;;;;;5069034;28;20040;-68
2022/06/27 07:04:26;;;;;;;7.72;4.20;;;21.70;80.60;;;;;;5075584;28;20067;-67
2022/06/27 07:06:53;;;;;;;7.57;4.13;;;21.70;80.50;;;;;;5066814;28;20526;-67
2022/06/27 07:09:19;;;;;;;6.53;3.95;;;21.60;80.50;;;;;;5066883;28;20036;-68
2022/06/27 07:11:46;;;;;;;8.40;4.10;;;21.70;80.20;;;;;;5061239;28;20040;-68
2022/06/27 07:14:15;;;;;;;7.78;4.20;;;21.80;80.10;;;;;;5069516;28;20037;-69
2022/06/27 07:16:42;;;;;;;6.30;4.20;;;21.80;79.80;;;;;;5064566;28;20098;-66
2022/06/27 07:19:11;;;;;;;7.32;4.50;;;21.90;80.10;;;;;;5069027;28;20485;-68
2022/06/27 07:21:38;;;;;;;6.13;3.85;;;21.90;80.40;;;;;;5061457;28;20068;-68
2022/06/27 07:24:08;;;;;;;6.18;3.78;;;21.80;80.70;;;;;;5065148;28;20036;-68
2022/06/27 07:26:36;;;;;;;6.25;3.63;;;21.80;80.60;;;;;;5065354;28;20059;-68
2022/06/27 07:29:05;;;;;;;7.40;3.90;;;21.90;80.30;;;;;;5066971;28;20067;-67
2022/06/27 07:31:32;;;;;;;5.90;3.88;;;21.90;80.30;;;;;;5069488;28;20040;-70
2022/06/27 07:34:01;;;;;;;6.22;3.83;;;21.90;80.40;;;;;;5078184;28;20397;-67
2022/06/27 07:36:32;;;;;;;;;;;21.80;80.50;;;;;;5079191;28;20044;-67
2022/06/27 07:38:59;;;;;;;5.55;3.33;;;21.80;80.50;;;;;;5069972;28;19931;-67
2022/06/27 07:41:26;;;;;;;5.15;3.35;;;21.80;80.40;;;;;;5065814;28;20048;-67
2022/06/27 07:43:55;;;;;;;5.78;3.42;;;21.70;80.40;;;;;;5065033;28;20088;-67
2022/06/27 07:46:22;;;;;;;5.55;3.28;;;21.70;80.40;;;;;;5067356;28;20049;-69
2022/06/27 07:48:50;;;;;;;6.95;3.40;;;21.70;80.30;;;;;;5066589;28;20051;-67
2022/06/27 07:51:19;;;;;;;7.75;3.55;;;21.70;80.30;;;;;;5064461;28;20049;-66
2022/06/27 07:53:48;;;;;;;5.57;3.03;;;21.70;80.40;;;;;;5069122;28;20061;-67
2022/06/27 07:56:16;;;;;;;4.97;3.42;;;21.60;80.80;;;;;;5064488;28;20041;-67
2022/06/27 07:58:43;;;;;;;4.00;2.80;;;21.60;81.00;;;;;;5067123;28;20059;-68
2022/06/27 08:01:12;;;;;;;4.82;2.90;;;21.60;81.20;;;;;;5069284;28;20185;-70
2022/06/27 08:03:43;;;;;;;5.60;3.67;;;21.60;81.40;;;;;;5066059;28;20059;-71
2022/06/27 08:06:13;;;;;;;5.03;3.33;;;21.70;81.40;;;;;;5065568;28;20044;-70
2022/06/27 08:08:43;;;;;;;5.90;3.17;;;21.70;81.50;;;;;;5052897;28;20055;-70
2022/06/27 08:11:13;;;;;;;5.78;3.10;;;21.70;81.30;;;;;;5059670;28;20052;-70
2022/06/27 08:13:41;;;;;;;6.55;3.20;;;21.70;81.30;;;;;;5064986;28;20187;-71
2022/06/27 08:16:08;;;;;;;4.85;2.78;;;21.70;81.10;;;;;;5067992;28;20048;-71
2022/06/27 08:18:38;;;;;;;5.50;3.33;;;21.80;81.30;;;;;;5068189;28;20565;-70
2022/06/27 08:21:08;;;;;;;5.75;3.15;;;21.80;81.40;;;;;;5068688;28;20524;-72
2022/06/27 08:23:36;;;;;;;5.20;3.20;;;21.80;81.40;;;;;;5069878;28;20054;-70
2022/06/27 08:26:06;;;;;;;6.53;3.20;;;21.80;81.30;;;;;;5069727;28;20051;-72
2022/06/27 08:28:35;;;;;;;8.20;3.20;;;21.90;81.10;;;;;;5066366;28;20093;-73
2022/06/27 08:31:02;;;;;;;5.03;2.70;;;21.90;81.20;;;;;;5066222;28;20521;-70
2022/06/27 08:33:30;;;;;;;6.97;3.75;;;21.90;81.20;;;;;;5071722;28;20052;-70
2022/06/27 08:35:59;;;;;;;6.05;3.47;;;21.90;81.10;;;;;;5067773;28;20071;-72
2022/06/27 08:38:26;;;;;;;6.75;3.65;;;21.80;81.10;;;;;;5069255;28;20150;-71
2022/06/27 08:40:54;;;;;;;5.85;3.78;;;21.80;80.90;;;;;;5068281;28;20136;-71
2022/06/27 08:43:22;;;;;;;9.18;4.10;;;21.80;80.80;;;;;;5068325;28;20171;-71
2022/06/27 08:45:51;;;;;;;6.60;4.03;;;21.80;80.80;;;;;;5065238;28;20390;-71
2022/06/27 08:48:19;;;;;;;7.70;3.78;;;21.80;81.00;;;;;;5067086;28;20039;-70
2022/06/27 08:50:48;;;;;;;9.13;3.90;;;21.70;81.10;;;;;;5056327;28;20053;-71
2022/06/27 08:53:17;;;;;;;11.40;4.00;;;21.80;81.00;;;;;;5063892;28;20057;-70
2022/06/27 08:55:46;;;;;;;7.20;3.78;;;21.80;81.10;;;;;;5064984;28;20045;-72
2022/06/27 08:58:14;;;;;;;8.70;4.40;;;21.80;81.10;;;;;;5068993;28;20036;-71
2022/06/27 09:00:45;;;;;;;8.23;4.85;;;21.90;80.90;;;;;;5064149;28;20354;-71
2022/06/27 09:03:14;;;;;;;9.02;4.93;;;21.90;81.20;;;;;;5071458;28;20082;-72
2022/06/27 09:05:41;;;;;;;11.15;6.20;;;21.90;81.20;;;;;;5064440;28;20055;-71
2022/06/27 09:08:09;;;;;;;8.02;4.97;;;21.90;81.00;;;;;;5070068;28;20131;-71
2022/06/27 09:10:39;;;;;;;8.70;4.55;;;22.00;80.90;;;;;;5063795;28;21477;-72
2022/06/27 09:13:08;;;;;;;10.13;5.05;;;22.10;81.00;;;;;;5073162;28;20048;-70
2022/06/27 09:15:52;;;;;;;8.07;4.82;;;22.10;81.00;;;;;;5069184;28;20040;-71
2022/06/27 09:18:23;;;;;;;6.68;4.47;;;22.20;81.20;;;;;;5066481;28;20040;-71
2022/06/27 09:20:52;;;;;;;7.00;4.18;;;22.20;81.20;;;;;;5068689;28;20048;-70
2022/06/27 09:23:32;;;;;;;6.97;4.60;;;22.30;80.90;;;;;;5070749;28;20172;-70
2022/06/27 09:26:05;;;;;;;7.28;4.10;;;22.60;80.40;;;;;;5067114;28;20052;-70
2022/06/27 09:28:42;;;;;;;5.63;3.90;;;22.80;80.00;;;;;;5067334;28;20063;-72
2022/06/27 09:31:12;;;;;;;7.03;3.65;;;22.90;79.70;;;;;;5071251;28;20508;-71
2022/06/27 09:33:41;;;;;;;7.05;3.75;;;23.10;78.90;;;;;;5066152;28;20179;-71
2022/06/27 09:36:14;;;;;;;6.18;3.30;;;23.00;79.10;;;;;;5075079;28;20459;-69
2022/06/27 09:38:43;;;;;;;5.15;3.30;;;23.10;79.30;;;;;;5061876;28;20093;-70
2022/06/27 09:41:13;;;;;;;6.28;3.72;;;23.10;79.00;;;;;;5069636;28;20045;-70
2022/06/27 09:43:44;;;;;;;6.03;3.53;;;23.10;78.80;;;;;;5068141;28;20060;-70
2022/06/27 09:46:17;;;;;;;7.07;3.78;;;23.20;78.60;;;;;;5063939;28;20056;-71
2022/06/27 09:48:47;;;;;;;5.13;3.05;;;23.20;78.50;;;;;;5068783;28;20513;-70
2022/06/27 09:51:17;;;;;;;9.90;5.03;;;23.30;78.40;;;;;;5066952;28;20045;-70
2022/06/27 09:53:48;;;;;;;8.50;4.78;;;23.50;78.00;;;;;;5074236;28;20044;-71
2022/06/27 09:56:18;;;;;;;6.03;3.45;;;23.60;76.90;;;;;;5069245;28;20041;-71
2022/06/27 09:58:45;;;;;;;7.18;4.32;;;23.70;75.60;;;;;;5076750;28;20107;-71
2022/06/27 10:01:13;;;;;;;6.65;3.78;;;24.00;74.40;;;;;;5071128;28;20052;-70
2022/06/27 10:03:41;;;;;;;6.70;4.05;;;23.90;74.10;;;;;;5072183;28;20093;-71
2022/06/27 10:06:10;;;;;;;7.45;3.22;;;23.80;74.20;;;;;;5076446;28;20045;-70
2022/06/27 10:08:43;;;;;;;6.03;2.53;;;23.60;74.30;;;;;;5071313;28;20393;-71
2022/06/27 10:11:12;;;;;;;7.95;2.58;;;23.60;74.10;;;;;;5069239;28;20048;-71
2022/06/27 10:13:42;;;;;;;4.60;3.15;;;23.40;74.70;;;;;;5064659;28;20398;-70
2022/06/27 10:16:12;;;;;;;4.43;2.60;;;23.40;75.00;;;;;;5065037;28;20059;-71
2022/06/27 10:19:02;;;;;;;4.50;2.50;;;23.20;75.60;;;;;;5067179;28;20052;-72
2022/06/27 10:21:32;;;;;;;4.40;2.38;;;23.20;75.90;;;;;;5049053;28;20596;-73
2022/06/27 10:24:29;;;;;;;8.63;2.60;;;23.10;76.10;;;;;;5063323;28;20052;-72
2022/06/27 10:26:57;;;;;;;5.95;3.13;;;23.10;76.30;;;;;;5064810;28;20040;-71
2022/06/27 10:29:44;;;;;;;9.30;4.07;;;23.10;76.70;;;;;;5060362;28;20504;-69
2022/06/27 10:32:46;;;;;;;5.78;3.35;;;23.00;76.80;;;;;;5067061;28;20055;-71
2022/06/27 10:35:15;;;;;;;7.05;3.45;;;23.00;77.00;;;;;;5081262;28;20052;-70
2022/06/27 10:37:45;;;;;;;7.68;4.07;;;22.90;77.10;;;;;;5065356;28;20052;-72
2022/06/27 10:40:42;;;;;;;7.05;3.90;;;22.80;77.30;;;;;;5067081;28;20052;-71
2022/06/27 10:43:09;;;;;;;6.80;4.05;;;22.90;77.70;;;;;;5064485;28;20048;-72
2022/06/27 10:45:38;;;;;;;7.43;3.65;;;22.90;77.90;;;;;;5062107;28;20558;-72
2022/06/27 10:48:35;;;;;;;7.65;3.10;;;22.90;78.00;;;;;;5065204;28;20041;-71
2022/06/27 10:51:21;;;;;;;5.55;2.40;;;22.90;78.00;;;;;;5068153;28;20040;-70
2022/06/27 10:53:50;;;;;;;4.72;2.83;;;23.00;77.40;;;;;;5074182;28;20071;-71
2022/06/27 10:56:34;;;;;;;6.38;3.45;;;23.00;76.70;;;;;;5073306;28;20043;-70
2022/06/27 10:59:03;;;;;;;7.38;3.70;;;23.10;76.10;;;;;;5071694;28;20075;-71
2022/06/27 11:01:30;;;;;;;6.80;3.13;;;23.30;75.50;;;;;;5069537;28;20056;-70
2022/06/27 11:03:58;;;;;;;4.70;3.10;;;23.50;75.10;;;;;;5074505;28;20070;-71
2022/06/27 11:06:25;;;;;;;6.38;2.58;;;23.60;74.30;;;;;;5071808;28;20040;-70
2022/06/27 11:08:55;;;;;;;8.00;2.67;;;23.60;74.20;;;;;;5066717;28;20164;-70
2022/06/27 11:11:25;;;;;;;7.40;2.70;;;23.60;74.20;;;;;;5068911;28;20048;-72
2022/06/27 11:13:53;;;;;;;4.22;2.20;;;23.60;74.50;;;;;;5062286;28;20056;-71
2022/06/27 11:16:22;;;;;;;4.93;2.35;;;23.50;74.60;;;;;;5068709;28;20184;-71
2022/06/27 11:18:51;;;;;;;2.88;1.90;;;23.50;74.50;;;;;;5065206;28;20482;-70
2022/06/27 11:21:19;;;;;;;3.28;1.70;;;23.50;74.70;;;;;;5066210;28;20070;-70
2022/06/27 11:23:59;;;;;;;4.28;1.52;;;23.40;74.90;;;;;;5064393;28;20051;-70
2022/06/27 11:26:29;;;;;;;3.05;1.40;;;23.40;75.20;;;;;;5064943;28;20081;-71
2022/06/27 11:32:02;;;;;;;4.00;2.15;;;23.50;74.80;;;;;;5017183;28;20053;-71
2022/06/27 11:34:32;;;;;;;4.25;2.50;;;23.60;74.50;;;;;;5079416;28;20044;-71
2022/06/27 11:37:02;;;;;;;6.40;3.03;;;23.60;74.60;;;;;;5075323;28;20044;-71
2022/06/27 11:39:32;;;;;;;4.40;2.17;;;23.80;74.70;;;;;;5074036;28;20040;-71
2022/06/27 11:42:02;;;;;;;4.53;2.20;;;24.00;74.30;;;;;;5069945;28;20098;-70
2022/06/27 11:44:30;;;;;;;5.22;2.92;;;24.40;72.20;;;;;;5067437;28;20044;-70
2022/06/27 11:47:04;;;;;;;3.83;2.17;;;24.50;73.20;;;;;;5065206;28;20055;-71
2022/06/27 11:49:33;;;;;;;3.70;1.95;;;24.50;73.20;;;;;;5066625;28;20046;-76
2022/06/27 11:52:02;;;;;;;3.50;1.63;;;24.60;72.30;;;;;;5065801;28;20048;-70
2022/06/27 11:54:40;;;;;;;2.55;1.67;;;24.80;70.90;;;;;;5067159;28;20044;-70
2022/06/27 11:57:22;;;;;;;2.95;1.33;;;24.80;71.40;;;;;;5069007;28;20134;-71
2022/06/27 11:59:50;;;;;;;3.75;2.08;;;24.90;70.90;;;;;;5073113;28;20044;-70
2022/06/27 12:02:27;;;;;;;2.22;1.50;;;24.80;71.20;;;;;;5072686;28;20033;-71
2022/06/27 12:05:04;;;;;;;3.42;1.75;;;24.80;70.40;;;;;;5070044;28;20048;-71
2022/06/27 12:07:31;;;;;;;2.75;1.60;;;24.90;70.10;;;;;;5069068;28;20044;-71
2022/06/27 12:09:59;;;;;;;2.95;1.52;;;24.70;69.60;;;;;;5069427;28;20059;-73
2022/06/27 12:12:26;;;;;;;3.10;1.58;;;24.80;69.50;;;;;;5069950;28;20052;-71
2022/06/27 12:14:54;;;;;;;3.97;1.27;;;24.70;69.90;;;;;;5072892;28;20040;-71
2022/06/27 12:17:23;;;;;;;1.77;1.00;;;24.70;70.20;;;;;;5080678;28;20044;-71
2022/06/27 12:20:01;;;;;;;4.00;1.63;;;24.80;69.60;;;;;;5078703;28;20049;-70
2022/06/27 12:22:28;;;;;;;1.50;1.00;;;25.00;68.90;;;;;;5078178;28;20044;-69
2022/06/27 12:24:55;;;;;;;2.90;1.30;;;25.00;68.60;;;;;;5079344;28;20044;-70
2022/06/27 12:27:23;;;;;;;2.92;1.42;;;25.10;68.50;;;;;;5082483;28;20470;-71
2022/06/27 12:29:50;;;;;;;3.50;1.40;;;25.10;68.00;;;;;;5081133;28;20051;-70
2022/06/27 12:32:17;;;;;;;3.42;1.45;;;25.00;68.40;;;;;;5080390;28;20040;-72
2022/06/27 12:34:44;;;;;;;1.95;1.20;;;25.00;68.30;;;;;;5080233;28;20369;-68
2022/06/27 12:37:11;;;;;;;4.57;1.73;;;25.10;68.10;;;;;;5076783;28;20135;-71
2022/06/27 12:39:38;;;;;;;4.18;1.70;;;24.90;68.20;;;;;;5079399;28;20044;-72
2022/06/27 12:42:05;;;;;;;2.35;1.20;;;24.90;68.40;;;;;;5082075;28;20138;-70
2022/06/27 12:44:34;;;;;;;4.53;1.45;;;24.90;68.30;;;;;;5080008;28;20044;-72
2022/06/27 12:47:00;;;;;;;2.35;1.10;;;24.90;67.90;;;;;;5082291;28;20109;-70
2022/06/27 12:49:27;;;;;;;2.53;1.20;;;25.00;67.70;;;;;;5081961;28;20033;-70
2022/06/27 12:51:54;;;;;;;4.75;1.42;;;24.90;67.90;;;;;;5075161;28;20392;-69
2022/06/27 12:54:22;;;;;;;2.85;1.60;;;25.00;67.70;;;;;;5080325;28;20040;-71
2022/06/27 12:56:48;;;;;;;1.33;1.00;;;24.70;68.30;;;;;;5081429;28;20053;-69
2022/06/27 12:59:15;;;;;;;1.42;0.90;;;24.60;68.40;;;;;;5078827;28;20539;-70
2022/06/27 13:01:47;;;;;;;1.95;1.23;;;24.50;68.90;;;;;;5067554;28;20052;-69
2022/06/27 13:04:14;;;;;;;2.25;1.30;;;24.30;69.20;;;;;;5074337;28;20477;-69
2022/06/27 13:06:41;;;;;;;4.47;1.73;;;24.20;69.40;;;;;;5080952;28;20409;-71